Thayer, Illinois
Current Conditions -  °F | °C
As of 10:52 PM on Friday 19 Dec 2014 (Local Time) from KSPI Reporting Station
Overcast Overcast  
Wind Chill: 31°   Ceiling: 5500
Heat Index: 31°   Visibility: 9mi
Dew Point: 24°   Wind: 3mph
Humidity: 76%   Direction: 100°E
Pressure: 30.28"   Gusts: NA
Location:  39.54°N, 89.76°W
Report Text: KSPI 200452Z AUTO 10003KT 9SM OVC055 M01/M04 A3028 RMK AO2 SLP260 T10061044
Loading
Personal Weather Stations






























Interactive Weather Map New forecast layout! Learn more

10-Day Weather Forecast

Advertisements
Track Severe Weather on mobile